Time;durP1;ratioP1;P1;durP2;ratioP2;P2;SDS_P1;SDS_P2;PMS_P1;PMS_P2;Temp;Humidity;BMP_temperature;BMP_pressure;BME280_temperature;BME280_humidity;BME280_pressure;Samples;Min_cycle;Max_cycle;Signal;HPM_P1;HPM_P2
2021/08/04 00:01:09;;;;;;;2.25;2.05;;;;;;;;;;4937036;29;20142;-69
2021/08/04 00:03:36;;;;;;;2.60;2.28;;;;;;;;;;4936928;29;20044;-70
2021/08/04 00:06:03;;;;;;;3.50;2.10;;;;;;;;;;4936880;29;20565;-70
2021/08/04 00:08:29;;;;;;;2.78;1.75;;;;;;;;;;4936798;29;20059;-69
2021/08/04 00:10:56;;;;;;;1.52;1.40;;;;;;;;;;4936622;29;20083;-69
2021/08/04 00:13:23;;;;;;;1.60;1.50;;;;;;;;;;4936726;29;20083;-70
2021/08/04 00:15:49;;;;;;;3.20;1.65;;;;;;;;;;4936949;29;20083;-70
2021/08/04 00:18:16;;;;;;;2.22;1.67;;;;;;;;;;4936392;29;20542;-70
2021/08/04 00:20:43;;;;;;;3.28;1.85;;;;;;;;;;4936938;29;20047;-69
2021/08/04 00:23:10;;;;;;;3.90;1.90;;;;;;;;;;4936159;29;20051;-70
2021/08/04 00:25:37;;;;;;;1.98;1.65;;;;;;;;;;4936992;29;20048;-69
2021/08/04 00:28:04;;;;;;;1.48;1.35;;;;;;;;;;4936281;29;20395;-70
2021/08/04 00:30:31;;;;;;;5.78;2.08;;;;;;;;;;4936790;29;20055;-69
2021/08/04 00:32:57;;;;;;;4.97;1.90;;;;;;;;;;4935831;29;20075;-70
2021/08/04 00:35:24;;;;;;;3.17;1.85;;;;;;;;;;4936741;29;20487;-70
2021/08/04 00:37:51;;;;;;;3.08;2.00;;;;;;;;;;4934969;29;20184;-70
2021/08/04 00:40:18;;;;;;;4.32;2.10;;;;;;;;;;4936230;29;20071;-70
2021/08/04 00:42:45;;;;;;;2.85;2.13;;;;;;;;;;4936323;29;20451;-70
2021/08/04 00:45:11;;;;;;;3.88;2.05;;;;;;;;;;4936052;29;20055;-71
2021/08/04 00:47:38;;;;;;;2.40;2.20;;;;;;;;;;4935944;29;20082;-70
2021/08/04 00:50:05;;;;;;;3.75;2.13;;;;;;;;;;4935847;29;20475;-68
2021/08/04 00:52:32;;;;;;;1.98;1.77;;;;;;;;;;4935022;29;20127;-70
2021/08/04 00:54:58;;;;;;;3.25;2.13;;;;;;;;;;4935872;29;20135;-70
2021/08/04 00:57:25;;;;;;;2.55;1.80;;;;;;;;;;4936252;29;20306;-70
2021/08/04 00:59:51;;;;;;;3.10;2.30;;;;;;;;;;4935832;29;20090;-70
2021/08/04 01:02:35;;;;;;;3.63;1.95;;;;;;;;;;4917280;29;20078;-70
2021/08/04 01:05:14;;;;;;;2.45;2.15;;;;;;;;;;4921161;29;20586;-69
2021/08/04 01:08:08;;;;;;;3.70;2.10;;;;;;;;;;4934646;29;20147;-70
2021/08/04 01:10:43;;;;;;;2.60;2.30;;;;;;;;;;4930837;29;20087;-70
2021/08/04 01:13:27;;;;;;;2.97;2.40;;;;;;;;;;4918715;29;20237;-68
2021/08/04 01:16:11;;;;;;;3.40;2.22;;;;;;;;;;4934582;29;20106;-69
2021/08/04 01:18:58;;;;;;;2.47;2.08;;;;;;;;;;4909824;29;20052;-70
2021/08/04 01:21:56;;;;;;;2.25;2.00;;;;;;;;;;4919140;29;20130;-69
2021/08/04 01:24:29;;;;;;;2.40;2.20;;;;;;;;;;4933791;29;20130;-69
2021/08/04 01:26:55;;;;;;;2.88;1.83;;;;;;;;;;4935197;29;20087;-70
2021/08/04 01:29:23;;;;;;;3.72;2.25;;;;;;;;;;4935309;29;20075;-69
2021/08/04 01:31:51;;;;;;;4.50;2.72;;;;;;;;;;4918403;29;20087;-70
2021/08/04 01:34:18;;;;;;;3.88;2.60;;;;;;;;;;4934305;29;20091;-70
2021/08/04 01:36:46;;;;;;;3.00;2.10;;;;;;;;;;4933891;29;20056;-70
2021/08/04 01:39:13;;;;;;;2.47;1.92;;;;;;;;;;4918574;29;20056;-70
2021/08/04 01:41:39;;;;;;;3.15;2.13;;;;;;;;;;4918371;29;20098;-69
2021/08/04 01:44:06;;;;;;;2.17;1.92;;;;;;;;;;4934971;29;20094;-69
2021/08/04 01:46:33;;;;;;;5.40;2.25;;;;;;;;;;4933936;29;20503;-70
2021/08/04 01:49:01;;;;;;;4.32;2.35;;;;;;;;;;4900398;29;20060;-70
2021/08/04 01:51:28;;;;;;;2.42;2.22;;;;;;;;;;4900730;29;20083;-70
2021/08/04 01:53:55;;;;;;;4.22;2.40;;;;;;;;;;4916840;29;20150;-68
2021/08/04 01:56:23;;;;;;;4.45;2.35;;;;;;;;;;4916170;29;20094;-71
2021/08/04 01:58:50;;;;;;;2.80;1.90;;;;;;;;;;4915784;29;20060;-69
2021/08/04 02:01:16;;;;;;;3.35;2.55;;;;;;;;;;4916032;29;20090;-70
2021/08/04 02:03:43;;;;;;;2.75;2.15;;;;;;;;;;4917049;29;20055;-68
2021/08/04 02:06:25;;;;;;;4.03;2.40;;;;;;;;;;4917004;29;20098;-69
2021/08/04 02:09:29;;;;;;;4.07;2.17;;;;;;;;;;4901730;29;20095;-69
2021/08/04 02:11:56;;;;;;;2.70;2.40;;;;;;;;;;4913794;29;20091;-70
2021/08/04 02:14:27;;;;;;;3.97;2.20;;;;;;;;;;4916108;29;20104;-70
2021/08/04 02:17:07;;;;;;;3.63;1.90;;;;;;;;;;4915743;29;20055;-70
2021/08/04 02:19:44;;;;;;;2.53;2.13;;;;;;;;;;4916717;29;20515;-70
2021/08/04 02:22:16;;;;;;;3.30;2.28;;;;;;;;;;4915672;29;20087;-70
2021/08/04 02:24:49;;;;;;;2.60;2.17;;;;;;;;;;4901644;29;20087;-71
2021/08/04 02:27:16;;;;;;;2.70;1.90;;;;;;;;;;4934340;29;20098;-70
2021/08/04 02:29:42;;;;;;;3.58;2.03;;;;;;;;;;4934240;29;20091;-70
2021/08/04 02:32:09;;;;;;;2.35;1.98;;;;;;;;;;4918562;29;20048;-70
2021/08/04 02:34:36;;;;;;;2.80;2.20;;;;;;;;;;4934077;29;20135;-68
2021/08/04 02:37:02;;;;;;;2.90;2.05;;;;;;;;;;4935442;29;20083;-70
2021/08/04 02:39:29;;;;;;;3.03;2.53;;;;;;;;;;4930450;29;20547;-70
2021/08/04 02:41:55;;;;;;;3.15;2.20;;;;;;;;;;4915482;29;20131;-70
2021/08/04 02:44:22;;;;;;;7.25;2.38;;;;;;;;;;4899297;29;20148;-69
2021/08/04 02:46:48;;;;;;;2.92;2.10;;;;;;;;;;4915226;29;20083;-71
2021/08/04 02:49:15;;;;;;;3.72;2.00;;;;;;;;;;4914927;29;20135;-70
2021/08/04 02:51:42;;;;;;;4.13;2.17;;;;;;;;;;4916435;29;20056;-70
2021/08/04 02:54:09;;;;;;;4.75;2.05;;;;;;;;;;4919834;29;20464;-70
2021/08/04 02:56:36;;;;;;;3.33;1.83;;;;;;;;;;4935123;29;20086;-70
2021/08/04 02:59:03;;;;;;;3.42;2.40;;;;;;;;;;4934837;29;20082;-70
2021/08/04 03:01:29;;;;;;;2.97;2.35;;;;;;;;;;4935111;29;20484;-70
2021/08/04 03:03:56;;;;;;;3.58;2.20;;;;;;;;;;4934720;29;20507;-71
2021/08/04 03:06:22;;;;;;;3.13;2.17;;;;;;;;;;4934991;29;20123;-68
2021/08/04 03:08:49;;;;;;;2.95;2.33;;;;;;;;;;4950705;23;20071;-65
2021/08/04 03:11:16;;;;;;;4.78;2.20;;;;;;;;;;4934808;29;20074;-66
2021/08/04 03:13:42;;;;;;;4.28;2.00;;;;;;;;;;4934717;29;20082;-66
2021/08/04 03:16:09;;;;;;;3.10;2.30;;;;;;;;;;4934699;29;20153;-66
2021/08/04 03:18:35;;;;;;;3.83;2.70;;;;;;;;;;4934784;29;20055;-66
2021/08/04 03:21:02;;;;;;;4.22;2.35;;;;;;;;;;4934614;29;20086;-65
2021/08/04 03:23:28;;;;;;;2.67;2.10;;;;;;;;;;4934578;29;20058;-66
2021/08/04 03:25:55;;;;;;;3.70;2.20;;;;;;;;;;4933667;29;20147;-65
2021/08/04 03:28:22;;;;;;;3.38;2.95;;;;;;;;;;4934639;29;20089;-65
2021/08/04 03:30:48;;;;;;;7.10;2.72;;;;;;;;;;4934957;29;20082;-66
2021/08/04 03:33:15;;;;;;;3.78;2.13;;;;;;;;;;4934301;29;20221;-66
2021/08/04 03:35:41;;;;;;;2.58;2.00;;;;;;;;;;4934620;29;20079;-66
2021/08/04 03:38:08;;;;;;;3.72;2.10;;;;;;;;;;4934569;29;20083;-66
2021/08/04 03:40:35;;;;;;;4.40;2.05;;;;;;;;;;4933442;29;20056;-66
2021/08/04 03:43:02;;;;;;;3.60;2.15;;;;;;;;;;4934397;29;20087;-66
2021/08/04 03:45:28;;;;;;;2.92;2.17;;;;;;;;;;4933279;29;20143;-66
2021/08/04 03:47:55;;;;;;;2.97;2.30;;;;;;;;;;4934337;29;20468;-66
2021/08/04 03:50:21;;;;;;;2.33;1.92;;;;;;;;;;4934321;29;20087;-66
2021/08/04 03:52:48;;;;;;;2.92;2.10;;;;;;;;;;4919594;29;20076;-65
2021/08/04 03:55:15;;;;;;;2.22;1.85;;;;;;;;;;4925164;29;20056;-66
2021/08/04 03:57:41;;;;;;;2.03;1.67;;;;;;;;;;4934503;29;20083;-66
2021/08/04 04:00:08;;;;;;;2.65;1.83;;;;;;;;;;4934371;29;20087;-66
2021/08/04 04:02:35;;;;;;;3.00;1.85;;;;;;;;;;4915867;29;20079;-66
2021/08/04 04:05:02;;;;;;;4.97;1.73;;;;;;;;;;4915303;29;20064;-66
2021/08/04 04:07:28;;;;;;;2.15;1.95;;;;;;;;;;4915231;29;20056;-66
2021/08/04 04:09:55;;;;;;;2.42;2.05;;;;;;;;;;4915677;29;20415;-66
2021/08/04 04:12:21;;;;;;;5.03;2.33;;;;;;;;;;4915083;29;20468;-66
2021/08/04 04:14:48;;;;;;;3.83;2.00;;;;;;;;;;4916144;29;20083;-66
2021/08/04 04:17:15;;;;;;;3.75;2.00;;;;;;;;;;4932799;29;20094;-66
2021/08/04 04:19:41;;;;;;;2.40;1.80;;;;;;;;;;4934245;29;20518;-66
2021/08/04 04:22:08;;;;;;;3.28;2.42;;;;;;;;;;4934134;29;20052;-66
2021/08/04 04:24:34;;;;;;;3.13;1.98;;;;;;;;;;4933744;29;20082;-66
2021/08/04 04:27:01;;;;;;;2.45;2.10;;;;;;;;;;4933973;29;20430;-66
2021/08/04 04:29:27;;;;;;;2.33;2.00;;;;;;;;;;4934381;29;20075;-66
2021/08/04 04:31:54;;;;;;;2.45;2.25;;;;;;;;;;4933886;29;20080;-66
2021/08/04 04:34:21;;;;;;;4.80;2.22;;;;;;;;;;4934409;29;20190;-66
2021/08/04 04:36:47;;;;;;;2.25;2.00;;;;;;;;;;4936809;29;20098;-66
2021/08/04 04:39:14;;;;;;;3.50;2.15;;;;;;;;;;4937596;29;20142;-66
2021/08/04 04:41:40;;;;;;;2.80;2.10;;;;;;;;;;4922822;29;20083;-66
2021/08/04 04:44:08;;;;;;;3.78;2.53;;;;;;;;;;4918363;29;20087;-66
2021/08/04 04:46:34;;;;;;;4.82;2.33;;;;;;;;;;4918489;29;20095;-66
2021/08/04 04:49:01;;;;;;;5.78;2.50;;;;;;;;;;4917868;29;20060;-66
2021/08/04 04:51:27;;;;;;;5.10;3.03;;;;;;;;;;4918550;29;20135;-66
2021/08/04 04:53:54;;;;;;;6.85;3.45;;;;;;;;;;4917057;29;20515;-66
2021/08/04 04:56:20;;;;;;;7.22;3.50;;;;;;;;;;4918210;29;20503;-66
2021/08/04 04:58:47;;;;;;;7.32;3.45;;;;;;;;;;4918357;29;20090;-66
2021/08/04 05:01:13;;;;;;;4.88;3.03;;;;;;;;;;4918317;29;20147;-66
2021/08/04 05:03:40;;;;;;;6.53;3.22;;;;;;;;;;4918125;29;20478;-66
2021/08/04 05:06:07;;;;;;;4.28;3.00;;;;;;;;;;4918358;29;20499;-66
2021/08/04 05:08:33;;;;;;;5.85;2.90;;;;;;;;;;4917887;29;20052;-66
2021/08/04 05:11:00;;;;;;;4.18;3.42;;;;;;;;;;4917990;29;20091;-66
2021/08/04 05:13:26;;;;;;;5.22;2.88;;;;;;;;;;4917878;29;20135;-66
2021/08/04 05:15:53;;;;;;;4.30;2.58;;;;;;;;;;4916879;29;20084;-66
2021/08/04 05:18:20;;;;;;;3.83;2.90;;;;;;;;;;4917954;29;20056;-66
2021/08/04 05:20:46;;;;;;;4.50;2.75;;;;;;;;;;4917873;29;20131;-66
2021/08/04 05:23:13;;;;;;;5.95;2.78;;;;;;;;;;4917656;29;20464;-66
2021/08/04 05:25:40;;;;;;;6.97;3.40;;;;;;;;;;4903240;29;20135;-66
2021/08/04 05:28:07;;;;;;;3.75;2.75;;;;;;;;;;4909880;29;20530;-67
2021/08/04 05:30:33;;;;;;;3.63;3.20;;;;;;;;;;4905045;29;20131;-67
2021/08/04 05:33:00;;;;;;;7.03;3.60;;;;;;;;;;4907722;29;20084;-67
2021/08/04 05:35:26;;;;;;;2.92;2.55;;;;;;;;;;4904868;29;20518;-67
2021/08/04 05:37:53;;;;;;;2.92;2.50;;;;;;;;;;4905168;29;20086;-66
2021/08/04 05:40:20;;;;;;;6.30;3.28;;;;;;;;;;4904295;29;20070;-67
2021/08/04 05:42:46;;;;;;;6.70;2.72;;;;;;;;;;4911818;29;20629;-66
2021/08/04 05:45:13;;;;;;;7.88;2.53;;;;;;;;;;4907804;29;20609;-67
2021/08/04 05:47:39;;;;;;;5.68;2.85;;;;;;;;;;4902749;29;20076;-69
2021/08/04 05:50:06;;;;;;;6.82;2.70;;;;;;;;;;4901269;29;20076;-67
2021/08/04 05:52:33;;;;;;;6.00;2.72;;;;;;;;;;4905403;29;20166;-66
2021/08/04 05:54:59;;;;;;;4.90;2.40;;;;;;;;;;4904583;29;20071;-66
2021/08/04 05:57:26;;;;;;;3.00;2.03;;;;;;;;;;4905096;29;20083;-67
2021/08/04 05:59:52;;;;;;;3.10;2.20;;;;;;;;;;4901399;29;20143;-67
2021/08/04 06:02:19;;;;;;;3.85;2.10;;;;;;;;;;4902494;29;20135;-67
2021/08/04 06:04:45;;;;;;;3.47;2.13;;;;;;;;;;4901398;29;20052;-67
2021/08/04 06:07:12;;;;;;;3.38;1.92;;;;;;;;;;4902823;29;20080;-67
2021/08/04 06:09:39;;;;;;;3.00;2.10;;;;;;;;;;4911499;29;20127;-67
2021/08/04 06:12:06;;;;;;;4.43;2.20;;;;;;;;;;4905943;29;20100;-67
2021/08/04 06:14:32;;;;;;;3.65;2.30;;;;;;;;;;4904658;29;20084;-67
2021/08/04 06:16:59;;;;;;;4.13;2.00;;;;;;;;;;4901991;29;20546;-67
2021/08/04 06:19:25;;;;;;;4.50;2.20;;;;;;;;;;4912909;29;20151;-67
2021/08/04 06:21:52;;;;;;;8.30;2.10;;;;;;;;;;4910252;29;20063;-67
2021/08/04 06:24:19;;;;;;;3.03;1.88;;;;;;;;;;4904387;29;20071;-68
2021/08/04 06:26:45;;;;;;;3.13;2.10;;;;;;;;;;4910390;29;20079;-67
2021/08/04 06:29:12;;;;;;;5.05;2.28;;;;;;;;;;4902361;29;20100;-67
2021/08/04 06:31:38;;;;;;;3.40;2.65;;;;;;;;;;4902569;29;20480;-67
2021/08/04 06:34:05;;;;;;;3.20;2.53;;;;;;;;;;4909573;29;20076;-67
2021/08/04 06:36:32;;;;;;;4.03;2.40;;;;;;;;;;4905967;29;20421;-67
2021/08/04 06:38:58;;;;;;;3.78;2.72;;;;;;;;;;4907154;29;20059;-67
2021/08/04 06:41:25;;;;;;;2.75;2.17;;;;;;;;;;4905604;29;20147;-67
2021/08/04 06:43:51;;;;;;;3.10;2.15;;;;;;;;;;4903654;29;20127;-67
2021/08/04 06:46:18;;;;;;;2.72;2.03;;;;;;;;;;4900893;29;20191;-67
2021/08/04 06:48:45;;;;;;;2.78;1.90;;;;;;;;;;4904281;29;20080;-67
2021/08/04 06:51:11;;;;;;;6.13;1.92;;;;;;;;;;4903393;29;20079;-71
2021/08/04 06:53:38;;;;;;;3.00;1.50;;;;;;;;;;4906054;29;20048;-69
2021/08/04 06:56:05;;;;;;;3.55;1.90;;;;;;;;;;4901242;29;20102;-67
2021/08/04 06:58:32;;;;;;;2.70;2.10;;;;;;;;;;4884455;29;20131;-67
2021/08/04 07:00:58;;;;;;;2.25;1.80;;;;;;;;;;4907111;29;20094;-67
2021/08/04 07:03:25;;;;;;;2.33;1.67;;;;;;;;;;4906951;29;20496;-67
2021/08/04 07:05:52;;;;;;;3.78;1.90;;;;;;;;;;4903801;29;20053;-66
2021/08/04 07:08:19;;;;;;;5.45;2.33;;;;;;;;;;4902353;29;20535;-67
2021/08/04 07:10:53;;;;;;;2.40;2.03;;;;;;;;;;4906083;29;20113;-66
2021/08/04 07:13:22;;;;;;;3.80;2.38;;;;;;;;;;4899814;29;20583;-66
2021/08/04 07:15:49;;;;;;;2.17;1.70;;;;;;;;;;4907455;29;20557;-66
2021/08/04 07:18:16;;;;;;;2.45;1.92;;;;;;;;;;4900126;29;20543;-67
2021/08/04 07:20:43;;;;;;;2.05;1.60;;;;;;;;;;4902229;29;20092;-66
2021/08/04 07:23:09;;;;;;;1.92;1.67;;;;;;;;;;4899860;29;20149;-66
2021/08/04 07:25:36;;;;;;;4.25;1.63;;;;;;;;;;4901351;29;20487;-64
2021/08/04 07:28:02;;;;;;;1.83;1.58;;;;;;;;;;4899669;29;20087;-65
2021/08/04 07:30:29;;;;;;;3.22;1.70;;;;;;;;;;4905868;29;20091;-65
2021/08/04 07:32:56;;;;;;;2.88;2.10;;;;;;;;;;4900437;29;20094;-65
2021/08/04 07:35:22;;;;;;;2.50;1.67;;;;;;;;;;4902436;29;20151;-66
2021/08/04 07:37:49;;;;;;;4.03;1.55;;;;;;;;;;4901666;29;20502;-67
2021/08/04 07:40:17;;;;;;;1.90;1.80;;;;;;;;;;4900359;29;20074;-66
2021/08/04 07:42:45;;;;;;;1.50;1.40;;;;;;;;;;4901298;29;20048;-66
2021/08/04 07:45:13;;;;;;;3.70;1.60;;;;;;;;;;4899310;29;20064;-66
2021/08/04 07:47:39;;;;;;;1.52;1.40;;;;;;;;;;4903204;29;20072;-69
2021/08/04 07:50:07;;;;;;;2.00;1.60;;;;;;;;;;4903468;29;20491;-70
2021/08/04 07:52:33;;;;;;;2.13;1.35;;;;;;;;;;4904258;29;20424;-70
2021/08/04 07:55:03;;;;;;;1.90;1.70;;;;;;;;;;4903807;29;20156;-69
2021/08/04 07:57:29;;;;;;;2.78;1.80;;;;;;;;;;4905738;29;20118;-72
2021/08/04 07:59:56;;;;;;;2.97;1.92;;;;;;;;;;4901698;29;20136;-68
2021/08/04 08:02:22;;;;;;;2.75;1.42;;;;;;;;;;4902143;29;20078;-69
2021/08/04 08:04:49;;;;;;;2.20;1.80;;;;;;;;;;4902132;29;20115;-69
2021/08/04 08:07:16;;;;;;;3.70;2.10;;;;;;;;;;4902220;29;20080;-70
2021/08/04 08:09:42;;;;;;;3.92;2.28;;;;;;;;;;4905306;29;20048;-66
2021/08/04 08:12:09;;;;;;;2.40;2.05;;;;;;;;;;4907343;29;20083;-67
2021/08/04 08:14:36;;;;;;;2.65;2.30;;;;;;;;;;4906416;29;20472;-66
2021/08/04 08:17:03;;;;;;;3.58;1.70;;;;;;;;;;4907974;29;20468;-66
2021/08/04 08:19:31;;;;;;;2.08;1.50;;;;;;;;;;4907297;29;20112;-66
2021/08/04 08:21:58;;;;;;;2.25;1.80;;;;;;;;;;4905492;29;20084;-66
2021/08/04 08:24:24;;;;;;;2.33;1.58;;;;;;;;;;4907180;29;20084;-66
2021/08/04 08:26:51;;;;;;;2.60;1.40;;;;;;;;;;4907497;29;20048;-66
2021/08/04 08:29:17;;;;;;;3.45;2.00;;;;;;;;;;4910839;29;20079;-66
2021/08/04 08:31:44;;;;;;;4.95;2.33;;;;;;;;;;4911574;29;20524;-66
2021/08/04 08:34:11;;;;;;;2.67;1.80;;;;;;;;;;4906579;29;20071;-66
2021/08/04 08:36:38;;;;;;;1.98;1.38;;;;;;;;;;4905665;29;20075;-66
2021/08/04 08:39:06;;;;;;;2.22;1.40;;;;;;;;;;4904663;29;20122;-66
2021/08/04 08:41:32;;;;;;;2.78;1.60;;;;;;;;;;4910725;29;20084;-66
2021/08/04 08:43:59;;;;;;;2.03;1.50;;;;;;;;;;4911290;29;20072;-66
2021/08/04 08:46:27;;;;;;;2.97;1.90;;;;;;;;;;4905910;29;20083;-66
2021/08/04 08:48:54;;;;;;;3.08;2.00;;;;;;;;;;4905070;29;20056;-66
2021/08/04 08:51:22;;;;;;;3.25;1.92;;;;;;;;;;4906227;29;20098;-66
2021/08/04 08:53:49;;;;;;;1.98;1.70;;;;;;;;;;4908102;29;20065;-66
2021/08/04 08:56:18;;;;;;;4.70;1.92;;;;;;;;;;4905528;29;20082;-66
2021/08/04 08:58:46;;;;;;;3.83;1.70;;;;;;;;;;4907345;29;20135;-66
2021/08/04 09:01:12;;;;;;;2.25;1.83;;;;;;;;;;4905695;29;20135;-66
2021/08/04 09:03:39;;;;;;;3.10;1.80;;;;;;;;;;4904432;29;20041;-66
2021/08/04 09:06:06;;;;;;;2.60;1.60;;;;;;;;;;4908073;29;20052;-69
2021/08/04 09:08:38;;;;;;;2.00;1.45;;;;;;;;;;4930563;23;20092;-67
2021/08/04 09:11:13;;;;;;;4.18;1.80;;;;;;;;;;4905668;29;20495;-67
2021/08/04 09:13:40;;;;;;;3.08;2.28;;;;;;;;;;4906152;29;20127;-67
2021/08/04 09:16:09;;;;;;;6.65;1.90;;;;;;;;;;4899589;29;20080;-70
2021/08/04 09:18:52;;;;;;;2.15;1.48;;;;;;;;;;4905889;29;20482;-70
2021/08/04 09:21:19;;;;;;;3.50;2.33;;;;;;;;;;4905365;29;20088;-71
2021/08/04 09:23:54;;;;;;;3.72;1.95;;;;;;;;;;4910591;29;20131;-69
2021/08/04 09:26:25;;;;;;;2.10;1.90;;;;;;;;;;4908891;29;20139;-70
2021/08/04 09:29:10;;;;;;;2.55;2.03;;;;;;;;;;4907948;29;20103;-70
2021/08/04 09:31:41;;;;;;;4.07;1.63;;;;;;;;;;4903591;29;20100;-70
2021/08/04 09:34:36;;;;;;;2.33;1.70;;;;;;;;;;4908925;29;20052;-69
2021/08/04 09:37:08;;;;;;;2.65;2.00;;;;;;;;;;4906401;29;20052;-70
2021/08/04 09:39:43;;;;;;;4.22;2.75;;;;;;;;;;4906196;29;20071;-73
2021/08/04 09:42:12;;;;;;;2.42;1.88;;;;;;;;;;4904784;29;20079;-69
2021/08/04 09:44:55;;;;;;;4.80;1.52;;;;;;;;;;4907260;29;20130;-69
2021/08/04 09:47:22;;;;;;;4.97;2.17;;;;;;;;;;4910937;29;20108;-70
2021/08/04 09:49:58;;;;;;;2.42;1.83;;;;;;;;;;4910707;29;20059;-70
2021/08/04 09:52:25;;;;;;;4.18;1.88;;;;;;;;;;4907321;29;20670;-69
2021/08/04 09:54:53;;;;;;;2.78;1.85;;;;;;;;;;4905015;29;20048;-70
2021/08/04 09:57:20;;;;;;;3.42;1.80;;;;;;;;;;4908671;29;20048;-68
2021/08/04 10:00:07;;;;;;;2.20;1.58;;;;;;;;;;4889112;29;20132;-69
2021/08/04 10:02:34;;;;;;;3.05;2.25;;;;;;;;;;4901281;29;20103;-70
2021/08/04 10:05:26;;;;;;;2.85;1.60;;;;;;;;;;4905058;29;20045;-67
2021/08/04 10:08:00;;;;;;;3.67;2.20;;;;;;;;;;4903809;29;20086;-69
2021/08/04 10:10:31;;;;;;;2.63;2.00;;;;;;;;;;4907662;29;20084;-68
2021/08/04 10:12:57;;;;;;;3.80;1.88;;;;;;;;;;4906102;29;20086;-68
2021/08/04 10:15:24;;;;;;;3.17;1.83;;;;;;;;;;4902290;29;20614;-69
2021/08/04 10:17:51;;;;;;;1.73;1.40;;;;;;;;;;4907847;29;20511;-68
2021/08/04 10:20:17;;;;;;;1.98;1.48;;;;;;;;;;4907173;29;20590;-69
2021/08/04 10:22:44;;;;;;;2.85;1.70;;;;;;;;;;4890690;29;20048;-69
2021/08/04 10:25:11;;;;;;;3.33;2.00;;;;;;;;;;4900975;29;20044;-69
2021/08/04 10:27:37;;;;;;;4.38;2.00;;;;;;;;;;4908253;29;20048;-70
2021/08/04 10:30:06;;;;;;;2.30;1.90;;;;;;;;;;4904107;29;20492;-69
2021/08/04 10:32:33;;;;;;;4.35;1.90;;;;;;;;;;4902976;29;20496;-69
2021/08/04 10:34:59;;;;;;;4.05;1.95;;;;;;;;;;4904169;29;20083;-69
2021/08/04 10:37:26;;;;;;;3.00;2.08;;;;;;;;;;4889386;29;20138;-70
2021/08/04 10:39:52;;;;;;;4.03;1.77;;;;;;;;;;4906460;29;20139;-70
2021/08/04 10:42:20;;;;;;;2.70;1.90;;;;;;;;;;4891812;29;20059;-69
2021/08/04 10:44:46;;;;;;;2.40;1.70;;;;;;;;;;4890983;29;20087;-68
2021/08/04 10:47:26;;;;;;;2.63;1.60;;;;;;;;;;4906366;29;20087;-68
2021/08/04 10:50:11;;;;;;;3.63;1.45;;;;;;;;;;4908913;29;20059;-70
2021/08/04 10:52:56;;;;;;;2.10;1.70;;;;;;;;;;4906045;29;20076;-68
2021/08/04 10:55:28;;;;;;;4.78;1.98;;;;;;;;;;4904780;29;20080;-67
2021/08/04 10:58:03;;;;;;;2.08;1.40;;;;;;;;;;4907719;29;20087;-67
2021/08/04 11:00:31;;;;;;;3.03;1.60;;;;;;;;;;4906303;29;20098;-67
2021/08/04 11:02:58;;;;;;;2.08;1.50;;;;;;;;;;4904359;29;20048;-69
2021/08/04 11:05:25;;;;;;;2.10;1.67;;;;;;;;;;4888022;29;20048;-66
2021/08/04 11:08:15;;;;;;;2.08;1.55;;;;;;;;;;4905542;29;20120;-68
2021/08/04 11:10:42;;;;;;;2.90;1.90;;;;;;;;;;4904631;29;20044;-69
2021/08/04 11:13:09;;;;;;;2.95;1.42;;;;;;;;;;4908263;29;20083;-68
2021/08/04 11:15:35;;;;;;;1.73;1.33;;;;;;;;;;4905696;29;20472;-68
2021/08/04 11:18:09;;;;;;;2.17;1.77;;;;;;;;;;4906693;29;20052;-65
2021/08/04 11:20:39;;;;;;;3.55;1.60;;;;;;;;;;4904690;29;20052;-65
2021/08/04 11:23:08;;;;;;;3.33;1.48;;;;;;;;;;4906141;29;20107;-66
2021/08/04 11:25:38;;;;;;;2.58;1.50;;;;;;;;;;4906813;29;20086;-65
2021/08/04 11:28:10;;;;;;;2.85;1.60;;;;;;;;;;4906091;29;20105;-65
2021/08/04 11:30:51;;;;;;;2.47;1.73;;;;;;;;;;4900497;29;20099;-65
2021/08/04 11:33:18;;;;;;;2.28;1.75;;;;;;;;;;4903758;29;20076;-65
2021/08/04 11:36:06;;;;;;;2.22;1.73;;;;;;;;;;4906482;29;20044;-65
2021/08/04 11:39:01;;;;;;;2.53;2.00;;;;;;;;;;4904831;29;20194;-65
2021/08/04 11:41:39;;;;;;;2.40;1.70;;;;;;;;;;4904904;29;20485;-65
2021/08/04 11:44:10;;;;;;;2.60;1.40;;;;;;;;;;4901960;29;20075;-65
2021/08/04 11:46:47;;;;;;;2.80;2.00;;;;;;;;;;4903664;29;20056;-65
2021/08/04 11:49:16;;;;;;;2.95;1.88;;;;;;;;;;4907026;29;20419;-65
2021/08/04 11:51:49;;;;;;;2.95;1.52;;;;;;;;;;4913782;29;20083;-65
2021/08/04 11:54:28;;;;;;;1.77;1.67;;;;;;;;;;4908941;29;20478;-65
2021/08/04 11:56:55;;;;;;;1.90;1.75;;;;;;;;;;4909746;29;20519;-65
2021/08/04 11:59:21;;;;;;;2.63;2.05;;;;;;;;;;4908085;29;20512;-65
2021/08/04 12:02:04;;;;;;;2.00;1.40;;;;;;;;;;4907298;29;20075;-65
2021/08/04 12:04:31;;;;;;;;;;;;;;;;;;4906418;29;20076;-65
2021/08/04 12:07:05;;;;;;;2.83;1.50;;;;;;;;;;4910591;29;20021;-65
2021/08/04 12:09:34;;;;;;;2.30;1.65;;;;;;;;;;4908291;29;20048;-66
2021/08/04 12:12:02;;;;;;;1.88;1.63;;;;;;;;;;4917317;29;20052;-65
2021/08/04 12:14:31;;;;;;;1.67;1.30;;;;;;;;;;4918415;29;20499;-65
2021/08/04 12:17:07;;;;;;;1.50;1.20;;;;;;;;;;4913304;29;20559;-65
2021/08/04 12:19:41;;;;;;;1.65;1.50;;;;;;;;;;4917396;29;20055;-65
2021/08/04 12:22:17;;;;;;;1.95;1.60;;;;;;;;;;4916041;29;20059;-65
2021/08/04 12:24:49;;;;;;;1.70;1.58;;;;;;;;;;4913719;29;20044;-65
2021/08/04 12:27:34;;;;;;;1.23;1.13;;;;;;;;;;4920056;29;20059;-65
2021/08/04 12:30:28;;;;;;;2.17;1.38;;;;;;;;;;4919358;29;20052;-65
2021/08/04 12:33:22;;;;;;;1.33;1.23;;;;;;;;;;4918166;29;20056;-65
2021/08/04 12:38:46;;;;;;;1.63;1.15;;;;;;;;;;4919231;29;20119;-65
2021/08/04 12:41:20;;;;;;;4.47;1.38;;;;;;;;;;4925071;29;20052;-64
2021/08/04 12:43:47;;;;;;;1.00;0.90;;;;;;;;;;4918836;29;20427;-67
2021/08/04 12:46:14;;;;;;;1.45;1.23;;;;;;;;;;4925818;29;20108;-65
2021/08/04 12:48:47;;;;;;;1.60;1.00;;;;;;;;;;4919342;29;20055;-66
2021/08/04 12:51:22;;;;;;;1.55;1.20;;;;;;;;;;4915805;29;20048;-65
2021/08/04 12:54:05;;;;;;;1.30;1.20;;;;;;;;;;4909139;29;20060;-65
2021/08/04 12:56:35;;;;;;;1.33;1.20;;;;;;;;;;4914730;29;20476;-64
2021/08/04 12:59:08;;;;;;;1.40;1.30;;;;;;;;;;4918034;29;20456;-65
2021/08/04 13:01:41;;;;;;;1.77;1.45;;;;;;;;;;4915505;29;20529;-64
2021/08/04 13:04:25;;;;;;;1.50;1.02;;;;;;;;;;4914826;29;20057;-65
2021/08/04 13:06:59;;;;;;;1.27;1.15;;;;;;;;;;4911775;29;20049;-64
2021/08/04 13:09:37;;;;;;;1.50;1.40;;;;;;;;;;4917109;29;20055;-64
2021/08/04 13:12:22;;;;;;;2.65;1.40;;;;;;;;;;4919664;29;20084;-64
2021/08/04 13:15:12;;;;;;;1.92;1.42;;;;;;;;;;4918356;29;20084;-64
2021/08/04 13:17:59;;;;;;;2.20;1.38;;;;;;;;;;4914936;29;20070;-65
2021/08/04 13:20:29;;;;;;;1.98;1.20;;;;;;;;;;4909194;29;20504;-65
2021/08/04 13:22:59;;;;;;;2.20;1.55;;;;;;;;;;4911599;29;20134;-64
2021/08/04 13:25:53;;;;;;;0.95;0.95;;;;;;;;;;4911596;29;20087;-66
2021/08/04 13:28:44;;;;;;;1.27;1.02;;;;;;;;;;4909015;29;20052;-65
2021/08/04 13:31:17;;;;;;;1.58;1.08;;;;;;;;;;4909572;29;20056;-65
2021/08/04 13:33:44;;;;;;;2.03;1.27;;;;;;;;;;4909558;29;20048;-64
2021/08/04 13:36:11;;;;;;;2.15;1.60;;;;;;;;;;4907416;29;20076;-65
2021/08/04 13:38:38;;;;;;;2.40;1.35;;;;;;;;;;4909525;29;20431;-65
2021/08/04 13:41:04;;;;;;;1.33;1.00;;;;;;;;;;4908600;29;20052;-65
2021/08/04 13:43:31;;;;;;;2.08;1.10;;;;;;;;;;4909833;29;20080;-65
2021/08/04 13:45:58;;;;;;;1.45;1.35;;;;;;;;;;4911632;29;20102;-65
2021/08/04 13:48:25;;;;;;;1.50;1.40;;;;;;;;;;4911862;29;20048;-65
2021/08/04 13:50:53;;;;;;;2.92;1.50;;;;;;;;;;4913735;29;20072;-66
2021/08/04 13:53:20;;;;;;;1.67;1.30;;;;;;;;;;4915013;29;20059;-69
2021/08/04 13:55:47;;;;;;;1.40;1.13;;;;;;;;;;4919074;29;20052;-67
2021/08/04 13:58:13;;;;;;;2.70;1.55;;;;;;;;;;4916443;29;20052;-69
2021/08/04 14:00:40;;;;;;;2.13;1.48;;;;;;;;;;4916915;29;20052;-68
2021/08/04 14:03:07;;;;;;;1.40;1.15;;;;;;;;;;4920230;29;20457;-69
2021/08/04 14:05:39;;;;;;;1.27;1.17;;;;;;;;;;4920981;29;20055;-70
2021/08/04 14:08:10;;;;;;;1.50;1.40;;;;;;;;;;4925284;29;20047;-69
2021/08/04 14:10:37;;;;;;;2.35;1.23;;;;;;;;;;4922865;29;20063;-65
2021/08/04 14:13:06;;;;;;;1.50;1.30;;;;;;;;;;4907412;29;20052;-70
2021/08/04 14:15:33;;;;;;;2.42;1.30;;;;;;;;;;4907661;29;20048;-70
2021/08/04 14:18:00;;;;;;;2.40;1.23;;;;;;;;;;4906190;29;20055;-70
2021/08/04 14:20:27;;;;;;;1.58;1.48;;;;;;;;;;4905172;29;20048;-71
2021/08/04 14:22:54;;;;;;;1.13;1.02;;;;;;;;;;4905976;29;20120;-69
2021/08/04 14:25:20;;;;;;;2.63;1.73;;;;;;;;;;4908483;29;20049;-69
2021/08/04 14:27:47;;;;;;;1.67;1.40;;;;;;;;;;4908731;29;20511;-69
2021/08/04 14:30:15;;;;;;;2.13;1.30;;;;;;;;;;4906586;29;20492;-69
2021/08/04 14:32:42;;;;;;;2.05;1.05;;;;;;;;;;4907889;29;20532;-69
2021/08/04 14:35:09;;;;;;;4.50;1.08;;;;;;;;;;4903543;29;20090;-67
2021/08/04 14:37:36;;;;;;;2.22;1.35;;;;;;;;;;4907326;29;20709;-68
2021/08/04 14:40:04;;;;;;;2.78;1.42;;;;;;;;;;4907768;29;20146;-70
2021/08/04 14:42:32;;;;;;;1.48;1.38;;;;;;;;;;4904217;29;20139;-70
2021/08/04 14:44:58;;;;;;;3.28;1.40;;;;;;;;;;4905111;29;20083;-69
2021/08/04 14:47:26;;;;;;;1.60;1.08;;;;;;;;;;4904599;29;20079;-73
2021/08/04 14:49:53;;;;;;;1.67;1.27;;;;;;;;;;4905383;29;20095;-67
2021/08/04 14:52:20;;;;;;;1.63;1.30;;;;;;;;;;4905913;29;20104;-69
2021/08/04 14:54:47;;;;;;;1.52;1.23;;;;;;;;;;4906664;29;20083;-68
2021/08/04 14:57:14;;;;;;;2.78;1.33;;;;;;;;;;4905339;29;20579;-68
2021/08/04 14:59:42;;;;;;;4.10;1.67;;;;;;;;;;4907997;29;20048;-69